Time;durP1;ratioP1;P1;durP2;ratioP2;P2;SDS_P1;SDS_P2;PMS_P1;PMS_P2;Temp;Humidity;BMP_temperature;BMP_pressure;BME280_temperature;BME280_humidity;BME280_pressure;Samples;Min_cycle;Max_cycle;Signal;HPM_P1;HPM_P2
2023/08/19 00:00:58;;;;;;;;;;;21.70;99.90;;;;;;2059156;28;19920;-71
2023/08/19 00:01:59;;;;;;;;;;;21.70;99.90;;;;;;2057739;28;19918;-70
2023/08/19 00:02:59;;;;;;;;;;;21.70;99.90;;;;;;2055978;28;20361;-70
2023/08/19 00:04:00;;;;;;;;;;;21.70;99.90;;;;;;2056737;28;19917;-70
2023/08/19 00:05:01;;;;;;;;;;;21.70;99.90;;;;;;2055170;28;20364;-70
2023/08/19 00:06:09;;;;;;;;;;;21.70;99.90;;;;;;2059454;28;19917;-71
2023/08/19 00:07:10;;;;;;;;;;;21.70;99.90;;;;;;2059483;28;20927;-71
2023/08/19 00:08:10;;;;;;;;;;;21.70;99.90;;;;;;2059409;28;19914;-71
2023/08/19 00:09:11;;;;;;;;;;;21.70;99.90;;;;;;2059392;28;20562;-70
2023/08/19 00:10:11;;;;;;;;;;;21.70;99.90;;;;;;2058545;28;19924;-69
2023/08/19 00:11:12;;;;;;;;;;;21.70;99.90;;;;;;2057375;28;20380;-70
2023/08/19 00:12:12;;;;;;;;;;;21.70;99.90;;;;;;2056778;28;19926;-70
2023/08/19 00:13:13;;;;;;;;;;;21.70;99.90;;;;;;2059264;28;19940;-70
2023/08/19 00:14:13;;;;;;;;;;;21.70;99.90;;;;;;2061439;28;19924;-71
2023/08/19 00:15:14;;;;;;;;;;;21.70;99.90;;;;;;2059489;28;19965;-71
2023/08/19 00:16:14;;;;;;;;;;;21.70;99.90;;;;;;2059290;28;19914;-71
2023/08/19 00:17:16;;;;;;;;;;;21.70;99.90;;;;;;2059053;28;20000;-70
2023/08/19 00:18:16;;;;;;;;;;;21.60;99.90;;;;;;2054883;28;20069;-71
2023/08/19 00:19:17;;;;;;;;;;;21.70;99.90;;;;;;2059326;28;19922;-72
2023/08/19 00:20:18;;;;;;;;;;;21.60;99.90;;;;;;2060848;28;20080;-71
2023/08/19 00:21:18;;;;;;;;;;;21.70;99.90;;;;;;2059467;28;19918;-71
2023/08/19 00:22:18;;;;;;;;;;;21.60;99.90;;;;;;2059431;28;19956;-71
2023/08/19 00:23:22;;;;;;;;;;;21.60;99.90;;;;;;2061369;28;20524;-72
2023/08/19 00:24:23;;;;;;;;;;;21.60;99.90;;;;;;2056881;28;20289;-71
2023/08/19 00:25:24;;;;;;;;;;;21.50;99.90;;;;;;2059224;28;19957;-70
2023/08/19 00:26:25;;;;;;;;;;;21.50;99.90;;;;;;2059343;28;19920;-70
2023/08/19 00:27:25;;;;;;;;;;;21.50;99.90;;;;;;2058631;28;20020;-71
2023/08/19 00:28:26;;;;;;;;;;;21.50;99.90;;;;;;2058512;28;20045;-70
2023/08/19 00:29:26;;;;;;;;;;;21.50;99.90;;;;;;2060423;28;19918;-70
2023/08/19 00:30:27;;;;;;;;;;;21.50;99.90;;;;;;2050514;28;20040;-70
2023/08/19 00:31:28;;;;;;;;;;;21.50;99.90;;;;;;2058459;28;20266;-70
2023/08/19 00:32:30;;;;;;;;;;;21.50;99.90;;;;;;2058959;28;19918;-70
2023/08/19 00:33:30;;;;;;;;;;;21.50;99.90;;;;;;2060448;28;19929;-70
2023/08/19 00:34:31;;;;;;;;;;;21.50;99.90;;;;;;2050662;28;19926;-70
2023/08/19 00:35:32;;;;;;;;;;;21.40;99.90;;;;;;2055185;28;19924;-70
2023/08/19 00:36:32;;;;;;;;;;;21.50;99.90;;;;;;2063112;28;19909;-70
2023/08/19 00:37:35;;;;;;;;;;;21.40;99.90;;;;;;2052321;28;20301;-71
2023/08/19 00:38:36;;;;;;;;;;;21.50;99.90;;;;;;2055123;28;20000;-70
2023/08/19 00:39:36;;;;;;;;;;;21.40;99.90;;;;;;2057181;28;19917;-70
2023/08/19 00:40:37;;;;;;;;;;;21.40;99.90;;;;;;2058050;28;19957;-70
2023/08/19 00:41:38;;;;;;;;;;;21.40;99.90;;;;;;2060549;28;19918;-70
2023/08/19 00:42:38;;;;;;;;;;;21.40;99.90;;;;;;2060992;28;20274;-70
2023/08/19 00:43:39;;;;;;;;;;;21.30;99.90;;;;;;2058265;28;20169;-70
2023/08/19 00:44:39;;;;;;;;;;;21.30;99.90;;;;;;2045606;28;19915;-70
2023/08/19 00:45:44;;;;;;;;;;;21.30;99.90;;;;;;2058451;28;19938;-69
2023/08/19 00:46:45;;;;;;;;;;;21.30;99.90;;;;;;2057363;28;20384;-70
2023/08/19 00:47:46;;;;;;;;;;;21.30;99.90;;;;;;2059017;28;19945;-70
2023/08/19 00:48:46;;;;;;;;;;;21.20;99.90;;;;;;2059130;28;19918;-70
2023/08/19 00:49:47;;;;;;;;;;;21.20;99.90;;;;;;2058440;28;19917;-70
2023/08/19 00:50:49;;;;;;;;;;;21.20;99.90;;;;;;2058727;28;20571;-70
2023/08/19 00:51:50;;;;;;;;;;;21.20;99.90;;;;;;2057420;28;20016;-71
2023/08/19 00:52:50;;;;;;;;;;;21.10;99.90;;;;;;2058373;28;20069;-70
2023/08/19 00:53:52;;;;;;;;;;;21.20;99.90;;;;;;2049264;28;19977;-71
2023/08/19 00:54:52;;;;;;;;;;;21.20;99.90;;;;;;2058481;28;19926;-71
2023/08/19 00:55:53;;;;;;;;;;;21.10;99.90;;;;;;2052716;28;20055;-71
2023/08/19 00:56:54;;;;;;;;;;;21.20;99.90;;;;;;2058135;28;20432;-71
2023/08/19 00:57:55;;;;;;;;;;;21.20;99.90;;;;;;2055065;28;19918;-70
2023/08/19 00:58:56;;;;;;;;;;;21.20;99.90;;;;;;2055541;28;19968;-70
2023/08/19 00:59:57;;;;;;;;;;;21.10;99.90;;;;;;2063044;28;19971;-71
2023/08/19 01:00:57;;;;;;;;;;;21.10;99.90;;;;;;2061177;28;19921;-71
2023/08/19 01:01:58;;;;;;;;;;;21.10;99.90;;;;;;2059027;28;19957;-72
2023/08/19 01:02:58;;;;;;;;;;;21.10;99.90;;;;;;2059000;28;19914;-71
2023/08/19 01:03:59;;;;;;;;;;;21.10;99.90;;;;;;2059053;28;20372;-71
2023/08/19 01:05:00;;;;;;;;;;;21.10;99.90;;;;;;2060914;28;20324;-71
2023/08/19 01:06:12;;;;;;;;;;;21.10;99.90;;;;;;2058361;28;19965;-70
2023/08/19 01:07:19;;;;;;;;;;;21.10;99.90;;;;;;2061741;28;19952;-70
2023/08/19 01:08:22;;;;;;;;;;;21.10;99.90;;;;;;2052917;28;19945;-70
2023/08/19 01:09:33;;;;;;;;;;;21.00;99.90;;;;;;2057826;28;20814;-69
2023/08/19 01:10:44;;;;;;;;;;;21.10;99.90;;;;;;2049670;28;19999;-70
2023/08/19 01:11:48;;;;;;;;;;;21.10;99.90;;;;;;2051039;28;19928;-71
2023/08/19 01:12:55;;;;;;;;;;;21.00;99.90;;;;;;2047644;28;20081;-70
2023/08/19 01:14:06;;;;;;;;;;;21.00;99.90;;;;;;2055333;28;19922;-70
2023/08/19 01:15:07;;;;;;;;;;;21.10;99.90;;;;;;2058953;28;20017;-71
2023/08/19 01:16:13;;;;;;;;;;;21.00;99.90;;;;;;2058466;28;19917;-70
2023/08/19 01:17:16;;;;;;;;;;;21.00;99.90;;;;;;2051129;28;20304;-70
2023/08/19 01:18:17;;;;;;;;;;;21.00;99.90;;;;;;2058319;28;19914;-70
2023/08/19 01:19:22;;;;;;;;;;;21.00;99.90;;;;;;2058631;28;19968;-70
2023/08/19 01:20:23;;;;;;;;;;;21.00;99.90;;;;;;2056807;28;19921;-70
2023/08/19 01:21:24;;;;;;;;;;;21.00;99.90;;;;;;2055608;28;20028;-70
2023/08/19 01:22:36;;;;;;;;;;;21.00;99.90;;;;;;2057760;28;20392;-70
2023/08/19 01:23:40;;;;;;;;;;;21.00;99.90;;;;;;2058937;28;19949;-70
2023/08/19 01:24:41;;;;;;;;;;;21.00;99.90;;;;;;2058328;28;19961;-70
2023/08/19 01:25:42;;;;;;;;;;;21.00;99.90;;;;;;2058198;28;19976;-72
2023/08/19 01:26:43;;;;;;;;;;;21.00;99.90;;;;;;2060637;28;19921;-70
2023/08/19 01:27:43;;;;;;;;;;;21.10;99.90;;;;;;2058872;28;20353;-70
2023/08/19 01:28:44;;;;;;;;;;;21.00;99.90;;;;;;2058390;28;19921;-71
2023/08/19 01:29:44;;;;;;;;;;;21.00;99.90;;;;;;2057856;28;20421;-70
2023/08/19 01:30:44;;;;;;;;;;;21.00;99.90;;;;;;2058225;28;20016;-70
2023/08/19 01:31:45;;;;;;;;;;;21.00;99.90;;;;;;2060678;28;20382;-70
2023/08/19 01:32:46;;;;;;;;;;;21.00;99.90;;;;;;2049920;28;19965;-70
2023/08/19 01:33:46;;;;;;;;;;;20.90;99.90;;;;;;2037693;28;20377;-70
2023/08/19 01:34:47;;;;;;;;;;;20.90;99.90;;;;;;2058111;28;20489;-70
2023/08/19 01:35:56;;;;;;;;;;;20.90;99.90;;;;;;2055988;28;21131;-71
2023/08/19 01:37:01;;;;;;;;;;;20.90;99.90;;;;;;2059280;28;20451;-70
2023/08/19 01:38:01;;;;;;;;;;;20.90;99.90;;;;;;2045903;28;20382;-70
2023/08/19 01:39:05;;;;;;;;;;;20.90;99.90;;;;;;2053291;28;19922;-70
2023/08/19 01:40:07;;;;;;;;;;;20.80;99.90;;;;;;2057085;28;20002;-71
2023/08/19 01:41:09;;;;;;;;;;;20.80;99.90;;;;;;2059697;28;20171;-69
2023/08/19 01:42:10;;;;;;;;;;;20.80;99.90;;;;;;2048641;28;20016;-70
2023/08/19 01:43:11;;;;;;;;;;;20.80;99.90;;;;;;2042675;28;19918;-70
2023/08/19 01:44:12;;;;;;;;;;;20.80;99.90;;;;;;2059173;28;19913;-70
2023/08/19 01:45:13;;;;;;;;;;;20.80;99.90;;;;;;2058304;28;20393;-72
2023/08/19 01:46:13;;;;;;;;;;;20.80;99.90;;;;;;2058907;28;19914;-71
2023/08/19 01:47:18;;;;;;;;;;;20.80;99.90;;;;;;2058909;28;19929;-70
2023/08/19 01:48:20;;;;;;;;;;;20.70;99.90;;;;;;2060613;28;19914;-70
2023/08/19 01:49:20;;;;;;;;;;;20.70;99.90;;;;;;2056014;28;20740;-71
2023/08/19 01:50:21;;;;;;;;;;;20.80;99.90;;;;;;2056994;28;19914;-70
2023/08/19 01:51:21;;;;;;;;;;;20.70;99.90;;;;;;2058041;28;19929;-70
2023/08/19 01:52:22;;;;;;;;;;;20.80;99.90;;;;;;2056368;28;19922;-72
2023/08/19 01:53:22;;;;;;;;;;;20.70;99.90;;;;;;2055416;28;20372;-72
2023/08/19 01:54:23;;;;;;;;;;;20.70;99.90;;;;;;2051931;28;20185;-70
2023/08/19 01:55:23;;;;;;;;;;;20.70;99.90;;;;;;2058136;28;19940;-70
2023/08/19 01:56:25;;;;;;;;;;;20.70;99.90;;;;;;2059751;28;19917;-71
2023/08/19 01:57:27;;;;;;;;;;;20.70;99.90;;;;;;2059854;28;20376;-71
2023/08/19 01:58:28;;;;;;;;;;;20.70;99.90;;;;;;2050170;28;19918;-69
2023/08/19 01:59:28;;;;;;;;;;;20.70;99.90;;;;;;2057089;28;20278;-71
2023/08/19 02:00:29;;;;;;;;;;;20.60;99.90;;;;;;2064711;28;19979;-70
2023/08/19 02:01:29;;;;;;;;;;;20.70;99.90;;;;;;2058842;28;19918;-70
2023/08/19 02:02:30;;;;;;;;;;;20.60;99.90;;;;;;2058256;28;19996;-71
2023/08/19 02:03:30;;;;;;;;;;;20.60;99.90;;;;;;2049984;28;20583;-70
2023/08/19 02:04:31;;;;;;;;;;;20.60;99.90;;;;;;2055427;28;19960;-72
2023/08/19 02:05:31;;;;;;;;;;;20.60;99.90;;;;;;2050924;28;20096;-71
2023/08/19 02:06:33;;;;;;;;;;;20.60;99.90;;;;;;2059827;28;19914;-71
2023/08/19 02:07:33;;;;;;;;;;;20.60;99.90;;;;;;2055654;28;19940;-71
2023/08/19 02:08:34;;;;;;;;;;;20.60;99.90;;;;;;2056559;28;19969;-70
2023/08/19 02:09:37;;;;;;;;;;;20.60;99.90;;;;;;2057932;28;19917;-70
2023/08/19 02:10:37;;;;;;;;;;;20.60;99.90;;;;;;2057396;28;20510;-70
2023/08/19 02:11:38;;;;;;;;;;;20.60;99.90;;;;;;2050979;28;20026;-71
2023/08/19 02:12:39;;;;;;;;;;;20.60;99.90;;;;;;2062541;28;19913;-71
2023/08/19 02:13:39;;;;;;;;;;;20.60;99.90;;;;;;2051158;28;19929;-71
2023/08/19 02:14:40;;;;;;;;;;;20.50;99.90;;;;;;2057913;28;19923;-71
2023/08/19 02:15:40;;;;;;;;;;;20.50;99.90;;;;;;2055854;28;19996;-70
2023/08/19 02:16:41;;;;;;;;;;;20.50;99.90;;;;;;2046708;28;20011;-70
2023/08/19 02:17:44;;;;;;;;;;;20.50;99.90;;;;;;2057227;28;19937;-70
2023/08/19 02:18:44;;;;;;;;;;;20.50;99.90;;;;;;2057980;28;19941;-70
2023/08/19 02:19:45;;;;;;;;;;;20.50;99.90;;;;;;2057906;28;19922;-69
2023/08/19 02:20:47;;;;;;;;;;;20.50;99.90;;;;;;2060246;28;20016;-70
2023/08/19 02:21:47;;;;;;;;;;;20.50;99.90;;;;;;2058255;28;19913;-70
2023/08/19 02:22:48;;;;;;;;;;;20.50;99.90;;;;;;2058631;28;19961;-80
2023/08/19 02:23:49;;;;;;;;;;;20.50;99.90;;;;;;2058769;28;19914;-70
2023/08/19 02:24:49;;;;;;;;;;;20.50;99.90;;;;;;2055411;28;20340;-70
2023/08/19 02:25:52;;;;;;;;;;;20.40;99.90;;;;;;2053355;28;19917;-77
2023/08/19 02:26:52;;;;;;;;;;;20.40;99.90;;;;;;2061007;28;19914;-71
2023/08/19 02:27:53;;;;;;;;;;;20.40;99.90;;;;;;2054642;28;19914;-71
2023/08/19 02:28:54;;;;;;;;;;;20.40;99.90;;;;;;2056277;28;19925;-71
2023/08/19 02:29:55;;;;;;;;;;;20.40;99.90;;;;;;2045410;28;20009;-71
2023/08/19 02:31:02;;;;;;;;;;;20.40;99.90;;;;;;2057853;28;19944;-71
2023/08/19 02:32:03;;;;;;;;;;;20.40;99.90;;;;;;2053213;28;20057;-71
2023/08/19 02:33:04;;;;;;;;;;;20.40;99.90;;;;;;2048011;28;19914;-70
2023/08/19 02:34:04;;;;;;;;;;;20.30;99.90;;;;;;2049840;28;19918;-71
2023/08/19 02:35:06;;;;;;;;;;;20.40;99.90;;;;;;2050586;28;20044;-72
2023/08/19 02:36:07;;;;;;;;;;;20.40;99.90;;;;;;2060283;28;20268;-72
2023/08/19 02:37:09;;;;;;;;;;;20.40;99.90;;;;;;2057859;28;19917;-71
2023/08/19 02:38:09;;;;;;;;;;;20.30;99.90;;;;;;2053654;28;20289;-71
2023/08/19 02:39:10;;;;;;;;;;;20.40;99.90;;;;;;2057695;28;19949;-73
2023/08/19 02:40:11;;;;;;;;;;;20.30;99.90;;;;;;2051982;28;20341;-71
2023/08/19 02:41:12;;;;;;;;;;;20.30;99.90;;;;;;2057778;28;19934;-71
2023/08/19 02:42:16;;;;;;;;;;;20.30;99.90;;;;;;2059395;28;19962;-71
2023/08/19 02:43:17;;;;;;;;;;;20.30;99.90;;;;;;2059290;28;20219;-72
2023/08/19 02:44:17;;;;;;;;;;;20.30;99.90;;;;;;2046718;28;19995;-70
2023/08/19 02:45:18;;;;;;;;;;;20.30;99.90;;;;;;2046297;28;20456;-71
2023/08/19 02:46:19;;;;;;;;;;;20.30;99.90;;;;;;2059120;28;19976;-72
2023/08/19 02:47:20;;;;;;;;;;;20.30;99.90;;;;;;2060128;28;19933;-71
2023/08/19 02:48:21;;;;;;;;;;;20.30;99.90;;;;;;2059135;28;19967;-72
2023/08/19 02:49:22;;;;;;;;;;;20.30;99.90;;;;;;2061363;28;19928;-71
2023/08/19 02:50:22;;;;;;;;;;;20.30;99.90;;;;;;2059247;28;20300;-71
2023/08/19 02:51:23;;;;;;;;;;;20.30;99.90;;;;;;2058860;28;19918;-72
2023/08/19 02:52:24;;;;;;;;;;;20.30;99.90;;;;;;2059233;28;19917;-71
2023/08/19 02:53:24;;;;;;;;;;;20.30;99.90;;;;;;2059273;28;19996;-71
2023/08/19 02:54:25;;;;;;;;;;;20.30;99.90;;;;;;2053113;28;19933;-71
2023/08/19 02:55:25;;;;;;;;;;;20.30;99.90;;;;;;2059156;28;19965;-71
2023/08/19 02:56:26;;;;;;;;;;;20.30;99.90;;;;;;2057663;28;19918;-73
2023/08/19 02:57:27;;;;;;;;;;;20.30;99.90;;;;;;2059436;28;20301;-71
2023/08/19 02:58:28;;;;;;;;;;;20.30;99.90;;;;;;2061021;28;20123;-71
2023/08/19 02:59:28;;;;;;;;;;;20.30;99.90;;;;;;2059415;28;19937;-71
2023/08/19 03:00:29;;;;;;;;;;;20.20;99.90;;;;;;2059854;28;19913;-71
2023/08/19 03:01:29;;;;;;;;;;;20.20;99.90;;;;;;2059228;28;19929;-71
2023/08/19 03:02:30;;;;;;;;;;;20.20;99.90;;;;;;2060873;28;19924;-72
2023/08/19 03:03:31;;;;;;;;;;;20.20;99.90;;;;;;2054476;28;20607;-71
2023/08/19 03:04:31;;;;;;;;;;;20.20;99.90;;;;;;2059440;28;20408;-71
2023/08/19 03:05:38;;;;;;;;;;;20.20;99.90;;;;;;2060009;28;19924;-70
2023/08/19 03:06:38;;;;;;;;;;;20.20;99.90;;;;;;2059851;28;20337;-70
2023/08/19 03:07:39;;;;;;;;;;;20.20;99.90;;;;;;2056456;28;19929;-70
2023/08/19 03:08:39;;;;;;;;;;;20.20;99.90;;;;;;2046515;28;19981;-70
2023/08/19 03:09:42;;;;;;;;;;;20.20;99.90;;;;;;2058134;28;19955;-71
2023/08/19 03:10:43;;;;;;;;;;;20.20;99.90;;;;;;2054988;28;20377;-70
2023/08/19 03:11:43;;;;;;;;;;;20.20;99.90;;;;;;2061079;28;19915;-70
2023/08/19 03:12:44;;;;;;;;;;;20.20;99.90;;;;;;2061008;28;20446;-70
2023/08/19 03:13:44;;;;;;;;;;;20.20;99.90;;;;;;2054306;28;19949;-70
2023/08/19 03:14:45;;;;;;;;;;;20.10;99.90;;;;;;2058950;28;19957;-70
2023/08/19 03:15:45;;;;;;;;;;;20.20;99.90;;;;;;2041086;29;20130;-69
2023/08/19 03:16:46;;;;;;;;;;;20.20;99.90;;;;;;2051068;28;19922;-71
2023/08/19 03:17:46;;;;;;;;;;;20.20;99.90;;;;;;2059748;28;20428;-72
2023/08/19 03:18:47;;;;;;;;;;;20.10;99.90;;;;;;2059150;28;19924;-71
2023/08/19 03:19:47;;;;;;;;;;;20.10;99.90;;;;;;2059300;28;19996;-74
2023/08/19 03:20:53;;;;;;;;;;;20.10;99.90;;;;;;2060714;28;19925;-70
2023/08/19 03:21:54;;;;;;;;;;;20.10;99.90;;;;;;2061500;28;20375;-71
2023/08/19 03:22:55;;;;;;;;;;;20.10;99.90;;;;;;2063208;28;20141;-70
2023/08/19 03:23:55;;;;;;;;;;;20.10;99.90;;;;;;2058568;28;19921;-70
2023/08/19 03:24:58;;;;;;;;;;;20.10;99.90;;;;;;2057823;28;19969;-72
2023/08/19 03:25:59;;;;;;;;;;;20.00;99.90;;;;;;2049353;28;19953;-71
2023/08/19 03:27:00;;;;;;;;;;;20.00;99.90;;;;;;2061048;28;20024;-71
2023/08/19 03:28:01;;;;;;;;;;;20.00;99.90;;;;;;2057760;28;20393;-71
2023/08/19 03:29:01;;;;;;;;;;;20.00;99.90;;;;;;2058951;28;19920;-71
2023/08/19 03:30:04;;;;;;;;;;;20.00;99.90;;;;;;2056526;28;19918;-72
2023/08/19 03:31:07;;;;;;;;;;;20.00;99.90;;;;;;2044676;28;19922;-71
2023/08/19 03:32:07;;;;;;;;;;;20.00;99.90;;;;;;2046283;28;20616;-73
2023/08/19 03:33:08;;;;;;;;;;;20.00;99.90;;;;;;2049664;28;19922;-72
2023/08/19 03:34:09;;;;;;;;;;;20.00;99.90;;;;;;2049347;28;19922;-72
2023/08/19 03:35:10;;;;;;;;;;;19.90;99.90;;;;;;2052836;28;19937;-72
2023/08/19 03:36:10;;;;;;;;;;;20.00;99.90;;;;;;2050254;28;19918;-72
2023/08/19 03:37:11;;;;;;;;;;;20.00;99.90;;;;;;2056480;28;19917;-73
2023/08/19 03:38:12;;;;;;;;;;;20.00;99.90;;;;;;2048460;28;20444;-71
2023/08/19 03:39:13;;;;;;;;;;;19.90;99.90;;;;;;2058863;28;19914;-73
2023/08/19 03:40:13;;;;;;;;;;;20.00;99.90;;;;;;2059585;28;19913;-72
2023/08/19 03:41:14;;;;;;;;;;;19.90;99.90;;;;;;2057087;28;19925;-71
2023/08/19 03:42:14;;;;;;;;;;;19.90;99.90;;;;;;2055574;28;19924;-71
2023/08/19 03:43:15;;;;;;;;;;;19.90;99.90;;;;;;2056986;28;20454;-71
2023/08/19 03:44:15;;;;;;;;;;;19.90;99.90;;;;;;2050826;28;19914;-71
2023/08/19 03:45:16;;;;;;;;;;;19.90;99.90;;;;;;2057804;28;19921;-71
2023/08/19 03:46:17;;;;;;;;;;;19.90;99.90;;;;;;2050873;28;19922;-71
2023/08/19 03:47:18;;;;;;;;;;;19.90;99.90;;;;;;2060665;28;19918;-71
2023/08/19 03:48:18;;;;;;;;;;;19.90;99.90;;;;;;2058939;28;20382;-71
2023/08/19 03:49:20;;;;;;;;;;;19.90;99.90;;;;;;2054275;28;19917;-72
2023/08/19 03:50:20;;;;;;;;;;;19.90;99.90;;;;;;2054129;28;20385;-71
2023/08/19 03:51:21;;;;;;;;;;;19.90;99.90;;;;;;2056948;28;19914;-72
2023/08/19 03:52:23;;;;;;;;;;;19.90;99.90;;;;;;2058223;28;19928;-72
2023/08/19 03:53:24;;;;;;;;;;;19.80;99.90;;;;;;2057591;28;19968;-71
2023/08/19 03:54:24;;;;;;;;;;;19.90;99.90;;;;;;2057011;28;20462;-71
2023/08/19 03:55:25;;;;;;;;;;;19.90;99.90;;;;;;2061899;28;19972;-70
2023/08/19 03:56:25;;;;;;;;;;;19.90;99.90;;;;;;2060094;28;20542;-72
2023/08/19 03:57:29;;;;;;;;;;;19.90;99.90;;;;;;2059375;28;19944;-72
2023/08/19 03:58:30;;;;;;;;;;;19.90;99.90;;;;;;2048937;28;19918;-71
2023/08/19 03:59:31;;;;;;;;;;;19.90;99.90;;;;;;2048194;28;19929;-71
2023/08/19 04:00:32;;;;;;;;;;;19.90;99.90;;;;;;2060787;28;19942;-71
2023/08/19 04:01:32;;;;;;;;;;;19.80;99.90;;;;;;2058961;28;20043;-71
2023/08/19 04:02:33;;;;;;;;;;;19.90;99.90;;;;;;2050711;28;19918;-71
2023/08/19 04:03:34;;;;;;;;;;;19.90;99.90;;;;;;2050638;28;20329;-71
2023/08/19 04:04:35;;;;;;;;;;;19.90;99.90;;;;;;2060680;28;19913;-71
2023/08/19 04:05:36;;;;;;;;;;;19.90;99.90;;;;;;2058587;28;19921;-70
2023/08/19 04:06:36;;;;;;;;;;;19.80;99.90;;;;;;2058634;28;20004;-72
2023/08/19 04:07:37;;;;;;;;;;;19.90;99.90;;;;;;2057455;28;19913;-71
2023/08/19 04:08:38;;;;;;;;;;;19.90;99.90;;;;;;2049026;28;19918;-71
2023/08/19 04:09:38;;;;;;;;;;;19.90;99.90;;;;;;2051827;28;19961;-71
2023/08/19 04:10:39;;;;;;;;;;;19.90;99.90;;;;;;2051089;28;20030;-71
2023/08/19 04:11:39;;;;;;;;;;;19.90;99.90;;;;;;2058185;28;19949;-71
2023/08/19 04:12:40;;;;;;;;;;;19.90;99.90;;;;;;2053917;28;19925;-71
2023/08/19 04:13:41;;;;;;;;;;;19.90;99.90;;;;;;2056538;28;20029;-71
2023/08/19 04:14:42;;;;;;;;;;;19.90;99.90;;;;;;2066285;28;19917;-71
2023/08/19 04:15:43;;;;;;;;;;;19.90;99.90;;;;;;2058430;28;19918;-70
2023/08/19 04:16:43;;;;;;;;;;;19.90;99.90;;;;;;2058604;28;19918;-72
2023/08/19 04:17:45;;;;;;;;;;;19.90;99.90;;;;;;2058588;28;20009;-70
2023/08/19 04:18:45;;;;;;;;;;;19.90;99.90;;;;;;2060581;28;20029;-70
2023/08/19 04:19:46;;;;;;;;;;;19.90;99.90;;;;;;2066122;28;20500;-71
2023/08/19 04:20:47;;;;;;;;;;;19.90;99.90;;;;;;2066623;28;19925;-71
2023/08/19 04:21:47;;;;;;;;;;;19.90;99.90;;;;;;2050594;28;20476;-71
2023/08/19 04:22:49;;;;;;;;;;;19.90;99.90;;;;;;2060506;28;19918;-71
2023/08/19 04:23:50;;;;;;;;;;;19.90;99.90;;;;;;2058651;28;20460;-71
2023/08/19 04:24:51;;;;;;;;;;;19.90;99.90;;;;;;2058594;28;19918;-71
2023/08/19 04:25:54;;;;;;;;;;;19.90;99.90;;;;;;2058316;28;20024;-71
2023/08/19 04:26:54;;;;;;;;;;;19.90;99.90;;;;;;2059203;28;20473;-71
2023/08/19 04:27:55;;;;;;;;;;;19.90;99.90;;;;;;2061208;28;19968;-71
2023/08/19 04:28:57;;;;;;;;;;;19.90;99.90;;;;;;2059970;28;19928;-71
2023/08/19 04:29:58;;;;;;;;;;;19.90;99.90;;;;;;2058558;28;19918;-72
2023/08/19 04:31:02;;;;;;;;;;;20.00;99.90;;;;;;2058609;28;19914;-71
2023/08/19 04:32:03;;;;;;;;;;;20.00;99.90;;;;;;2066016;28;20012;-71
2023/08/19 04:33:05;;;;;;;;;;;20.00;99.90;;;;;;2064614;28;20016;-71
2023/08/19 04:34:06;;;;;;;;;;;20.00;99.90;;;;;;2057590;28;20153;-71
2023/08/19 04:35:06;;;;;;;;;;;20.00;99.90;;;;;;2058548;28;19924;-71
2023/08/19 04:36:07;;;;;;;;;;;20.00;99.90;;;;;;2059164;28;20408;-71
2023/08/19 04:37:09;;;;;;;;;;;20.10;99.90;;;;;;2055874;28;19953;-71
2023/08/19 04:38:10;;;;;;;;;;;20.10;99.90;;;;;;2050276;28;19918;-71
2023/08/19 04:39:11;;;;;;;;;;;20.10;99.90;;;;;;2052039;28;20022;-71
2023/08/19 04:40:13;;;;;;;;;;;20.10;99.90;;;;;;2050285;28;19914;-71
2023/08/19 04:41:16;;;;;;;;;;;20.10;99.90;;;;;;2050336;28;19918;-70
2023/08/19 04:42:19;;;;;;;;;;;20.20;99.90;;;;;;2042689;28;19919;-71
2023/08/19 04:43:20;;;;;;;;;;;20.20;99.90;;;;;;2046783;28;19915;-71
2023/08/19 04:44:21;;;;;;;;;;;20.20;99.90;;;;;;2052201;28;20040;-71
2023/08/19 04:45:21;;;;;;;;;;;20.20;99.90;;;;;;2050510;28;20412;-71
2023/08/19 04:46:23;;;;;;;;;;;20.20;99.90;;;;;;2049145;28;20043;-71
2023/08/19 04:47:24;;;;;;;;;;;20.30;99.90;;;;;;2047521;28;19941;-70
2023/08/19 04:48:25;;;;;;;;;;;20.30;99.90;;;;;;2056122;28;19960;-71
2023/08/19 04:49:27;;;;;;;;;;;20.30;99.90;;;;;;2057707;28;20258;-71
2023/08/19 04:50:27;;;;;;;;;;;20.40;99.90;;;;;;2058151;28;19984;-71
2023/08/19 04:51:28;;;;;;;;;;;20.40;99.90;;;;;;2059036;28;19964;-71
2023/08/19 04:52:31;;;;;;;;;;;20.40;99.90;;;;;;2058324;28;19953;-71
2023/08/19 04:53:31;;;;;;;;;;;20.40;99.90;;;;;;2060164;28;19914;-71
2023/08/19 04:54:32;;;;;;;;;;;20.50;99.90;;;;;;2058342;28;19918;-71
2023/08/19 04:55:32;;;;;;;;;;;20.50;99.90;;;;;;2056391;28;19941;-71
2023/08/19 04:56:33;;;;;;;;;;;20.50;99.90;;;;;;2047620;28;20406;-71
2023/08/19 04:57:34;;;;;;;;;;;20.60;99.90;;;;;;2048239;28;19918;-71
2023/08/19 04:58:35;;;;;;;;;;;20.60;99.90;;;;;;2054963;28;19940;-71
2023/08/19 04:59:35;;;;;;;;;;;20.60;99.90;;;;;;2056589;28;19944;-71
2023/08/19 05:00:36;;;;;;;;;;;20.70;99.90;;;;;;2045646;28;19933;-71
2023/08/19 05:01:37;;;;;;;;;;;20.80;99.90;;;;;;2053936;28;19914;-70
2023/08/19 05:02:38;;;;;;;;;;;20.80;99.90;;;;;;2052646;28;19918;-71
2023/08/19 05:03:39;;;;;;;;;;;20.90;99.90;;;;;;2050055;28;19922;-71
2023/08/19 05:04:40;;;;;;;;;;;21.00;99.90;;;;;;2047448;28;20044;-72
2023/08/19 05:05:40;;;;;;;;;;;21.00;99.90;;;;;;2054754;28;19968;-71
2023/08/19 05:06:41;;;;;;;;;;;21.10;99.90;;;;;;2048393;28;20401;-71
2023/08/19 05:07:42;;;;;;;;;;;21.10;99.90;;;;;;2045054;28;19915;-71
2023/08/19 05:08:42;;;;;;;;;;;21.20;99.90;;;;;;2052186;28;20376;-70
2023/08/19 05:09:43;;;;;;;;;;;21.40;99.90;;;;;;2054021;28;19961;-70
2023/08/19 05:10:43;;;;;;;;;;;21.60;99.90;;;;;;2055012;28;19940;-70
2023/08/19 05:11:44;;;;;;;;;;;21.80;99.90;;;;;;2058416;28;20013;-72
2023/08/19 05:12:45;;;;;;;;;;;22.10;99.90;;;;;;2048167;28;19949;-70
2023/08/19 05:13:46;;;;;;;;;;;22.30;99.90;;;;;;2053362;28;20619;-71
2023/08/19 05:14:49;;;;;;;;;;;22.60;99.90;;;;;;2046597;28;20748;-71
2023/08/19 05:15:51;;;;;;;;;;;22.90;99.90;;;;;;2036982;28;20426;-71
2023/08/19 05:16:51;;;;;;;;;;;23.20;99.90;;;;;;2058086;28;19913;-72
2023/08/19 05:17:52;;;;;;;;;;;23.30;99.90;;;;;;2054263;28;19911;-69
2023/08/19 05:19:03;;;;;;;;;;;23.60;99.90;;;;;;2054440;28;20468;-70
2023/08/19 05:20:05;;;;;;;;;;;23.80;99.90;;;;;;2056517;28;19924;-70
2023/08/19 05:21:05;;;;;;;;;;;24.00;99.90;;;;;;2058674;28;19928;-70
2023/08/19 05:22:06;;;;;;;;;;;24.20;99.90;;;;;;2060225;28;19914;-70
2023/08/19 05:23:07;;;;;;;;;;;24.40;99.90;;;;;;2059069;28;20000;-70
2023/08/19 05:24:09;;;;;;;;;;;24.60;99.90;;;;;;2058309;28;20311;-70
2023/08/19 05:25:09;;;;;;;;;;;24.70;99.90;;;;;;2058179;28;20076;-70
2023/08/19 05:26:10;;;;;;;;;;;24.80;99.90;;;;;;2048712;28;19919;-70
2023/08/19 05:27:10;;;;;;;;;;;25.00;99.90;;;;;;2049203;28;20600;-70
2023/08/19 05:28:11;;;;;;;;;;;25.10;99.90;;;;;;2058957;28;19910;-71
2023/08/19 05:29:12;;;;;;;;;;;25.30;99.90;;;;;;2059048;28;20349;-70
2023/08/19 05:30:12;;;;;;;;;;;25.40;99.90;;;;;;2058980;28;20488;-70
2023/08/19 05:31:13;;;;;;;;;;;25.50;99.90;;;;;;2060896;28;19922;-70
2023/08/19 05:32:13;;;;;;;;;;;25.60;99.90;;;;;;2058768;28;19956;-70
2023/08/19 05:33:14;;;;;;;;;;;25.70;99.90;;;;;;2058958;28;19922;-71
2023/08/19 05:34:14;;;;;;;;;;;25.80;99.90;;;;;;2054329;28;20482;-71
2023/08/19 05:35:15;;;;;;;;;;;25.80;99.90;;;;;;2060160;28;20026;-70
2023/08/19 05:36:15;;;;;;;;;;;25.70;99.90;;;;;;2058484;28;19918;-70
2023/08/19 05:37:16;;;;;;;;;;;25.70;99.90;;;;;;2058367;28;19914;-70
2023/08/19 05:38:16;;;;;;;;;;;25.70;99.90;;;;;;2058419;28;19913;-70
2023/08/19 05:39:17;;;;;;;;;;;25.70;99.90;;;;;;2055973;28;20128;-71
2023/08/19 05:40:17;;;;;;;;;;;25.60;99.90;;;;;;2059943;28;19917;-70
2023/08/19 05:41:18;;;;;;;;;;;25.60;99.90;;;;;;2058291;28;19918;-70
2023/08/19 05:42:18;;;;;;;;;;;25.60;99.90;;;;;;2058847;28;19917;-71
2023/08/19 05:43:19;;;;;;;;;;;25.60;99.90;;;;;;2058149;28;20378;-70
2023/08/19 05:44:19;;;;;;;;;;;25.70;99.90;;;;;;2059846;28;20389;-69
2023/08/19 05:45:20;;;;;;;;;;;25.70;99.90;;;;;;2053139;28;19919;-68
2023/08/19 05:46:20;;;;;;;;;;;25.90;99.90;;;;;;2051422;28;20385;-70
2023/08/19 05:47:21;;;;;;;;;;;26.00;99.90;;;;;;2057414;28;20354;-69
2023/08/19 05:48:21;;;;;;;;;;;26.20;99.90;;;;;;2056855;28;19973;-69
2023/08/19 05:49:22;;;;;;;;;;;26.20;99.90;;;;;;2054786;28;19917;-69
2023/08/19 05:50:26;;;;;;;;;;;26.10;99.90;;;;;;2058470;28;20554;-69
2023/08/19 05:51:27;;;;;;;;;;;26.00;99.90;;;;;;2058846;28;19914;-68
2023/08/19 05:52:27;;;;;;;;;;;25.90;99.90;;;;;;2059012;28;19943;-69
2023/08/19 05:53:28;;;;;;;;;;;25.70;99.90;;;;;;2060452;28;19984;-69
2023/08/19 05:54:28;;;;;;;;;;;25.60;99.90;;;;;;2058666;28;20194;-69
2023/08/19 05:55:29;;;;;;;;;;;25.50;99.90;;;;;;2058751;28;20100;-69
2023/08/19 05:56:29;;;;;;;;;;;25.40;99.90;;;;;;2060785;28;19917;-70